createdAt,value
2018-08-25T00:00:34.410Z,2.40
2018-08-25T00:03:03.605Z,1.33
2018-08-25T00:05:32.872Z,1.57
2018-08-25T00:08:02.396Z,1.70
2018-08-25T00:10:31.724Z,1.50
2018-08-25T00:13:01.201Z,1.30
2018-08-25T00:15:30.319Z,1.63
2018-08-25T00:17:59.393Z,1.30
2018-08-25T00:20:29.119Z,1.47
2018-08-25T00:22:58.373Z,1.30
2018-08-25T00:25:27.885Z,1.20
2018-08-25T00:27:57.011Z,1.30
2018-08-25T00:30:31.320Z,1.37
2018-08-25T00:33:01.336Z,1.90
2018-08-25T00:35:30.833Z,1.77
2018-08-25T00:38:00.569Z,1.33
2018-08-25T00:40:30.099Z,1.30
2018-08-25T00:43:00.714Z,1.40
2018-08-25T00:45:29.864Z,1.63
2018-08-25T00:47:59.148Z,1.53
2018-08-25T00:50:29.025Z,1.50
2018-08-25T00:52:58.252Z,2.70
2018-08-25T00:55:27.445Z,1.10
2018-08-25T00:57:56.625Z,1.20
2018-08-25T01:00:26.099Z,1.10
2018-08-25T01:02:55.194Z,1.30
2018-08-25T01:05:24.464Z,1.20
2018-08-25T01:07:53.964Z,1.53
2018-08-25T01:10:23.281Z,1.20
2018-08-25T01:12:52.968Z,1.50
2018-08-25T01:15:22.187Z,1.60
2018-08-25T01:17:51.824Z,2.37
2018-08-25T01:20:21.190Z,1.67
2018-08-25T01:22:50.593Z,1.50
2018-08-25T01:25:20.131Z,2.20
2018-08-25T01:27:49.619Z,1.20
2018-08-25T01:30:19.052Z,1.40
2018-08-25T01:32:48.516Z,1.60
2018-08-25T01:35:17.988Z,1.57
2018-08-25T01:37:47.306Z,1.90
2018-08-25T01:40:16.637Z,1.40
2018-08-25T01:42:46.374Z,1.50
2018-08-25T01:45:15.677Z,1.43
2018-08-25T01:47:45.020Z,1.30
2018-08-25T01:50:14.629Z,1.60
2018-08-25T01:52:43.992Z,1.40
2018-08-25T01:55:13.557Z,1.30
2018-08-25T01:57:42.915Z,1.80
2018-08-25T02:00:12.362Z,1.40
2018-08-25T02:02:41.927Z,1.60
2018-08-25T02:05:11.161Z,1.50
2018-08-25T02:07:40.371Z,1.60
2018-08-25T02:10:09.589Z,1.80
2018-08-25T02:12:39.683Z,1.57
2018-08-25T02:15:09.276Z,2.07
2018-08-25T02:17:38.361Z,1.30
2018-08-25T02:20:07.861Z,1.60
2018-08-25T02:22:36.937Z,1.60
2018-08-25T02:25:06.284Z,1.40
2018-08-25T02:27:35.390Z,1.70
2018-08-25T02:30:04.861Z,1.53
2018-08-25T02:32:34.452Z,2.07
2018-08-25T02:35:03.591Z,1.47
2018-08-25T02:37:33.241Z,2.33
2018-08-25T02:40:02.813Z,1.70
2018-08-25T02:42:32.871Z,1.70
2018-08-25T02:45:02.091Z,1.80
2018-08-25T02:47:31.462Z,1.33
2018-08-25T02:50:01.023Z,1.83
2018-08-25T02:52:30.215Z,1.40
2018-08-25T02:54:59.322Z,1.80
2018-08-25T02:57:28.968Z,1.70
2018-08-25T02:59:57.976Z,1.87
2018-08-25T03:02:27.373Z,1.57
2018-08-25T03:04:56.577Z,1.50
2018-08-25T03:07:25.883Z,1.50
2018-08-25T03:09:55.149Z,1.30
2018-08-25T03:12:24.497Z,1.57
2018-08-25T03:14:53.791Z,1.20
2018-08-25T03:17:23.430Z,1.50
2018-08-25T03:19:53.097Z,1.60
2018-08-25T03:22:22.432Z,1.70
2018-08-25T03:24:51.713Z,1.63
2018-08-25T03:27:21.160Z,1.50
2018-08-25T03:29:50.310Z,1.23
2018-08-25T03:32:19.602Z,1.40
2018-08-25T03:34:49.643Z,1.50
2018-08-25T03:37:18.725Z,1.40
2018-08-25T03:39:47.791Z,1.63
2018-08-25T03:42:16.829Z,1.43
2018-08-25T03:44:46.237Z,1.50
2018-08-25T03:47:15.752Z,1.00
2018-08-25T03:49:45.048Z,1.33
2018-08-25T03:52:14.212Z,1.20
2018-08-25T03:54:43.331Z,1.67
2018-08-25T03:57:12.880Z,1.10
2018-08-25T03:59:42.091Z,1.23
2018-08-25T04:02:11.336Z,2.47
2018-08-25T04:04:40.626Z,1.47
2018-08-25T04:07:10.108Z,1.23
2018-08-25T04:09:39.440Z,1.50
2018-08-25T04:12:08.767Z,1.60
2018-08-25T04:17:06.933Z,1.50
2018-08-25T04:34:25.965Z,1.50
2018-08-25T04:36:54.988Z,1.95
2018-08-25T05:01:40.888Z,1.80
2018-08-25T05:04:10.294Z,2.20
2018-08-25T05:06:39.600Z,1.70
2018-08-25T05:16:35.285Z,2.70
2018-08-25T05:19:04.694Z,2.10
2018-08-25T05:21:33.989Z,2.20
2018-08-25T05:24:03.529Z,3.00
2018-08-25T05:29:02.356Z,2.40
2018-08-25T05:31:31.415Z,2.40
2018-08-25T05:34:00.530Z,1.80
2018-08-25T05:36:29.589Z,2.00
2018-08-25T05:38:58.568Z,1.90
2018-08-25T05:41:28.044Z,1.60
2018-08-25T05:43:57.350Z,2.00
2018-08-25T05:46:26.934Z,1.83
2018-08-25T06:46:16.541Z,3.10
2018-08-25T07:08:33.164Z,3.73
2018-08-25T07:11:02.504Z,3.03
2018-08-25T07:13:31.723Z,3.00
2018-08-25T07:28:23.877Z,4.70
2018-08-25T07:30:53.289Z,3.25
2018-08-25T07:33:23.014Z,2.97
2018-08-25T07:50:42.503Z,2.90
2018-08-25T07:53:12.857Z,3.57
2018-08-25T07:58:10.606Z,2.87
2018-08-25T08:05:37.231Z,2.60
2018-08-25T08:22:56.752Z,3.35
2018-08-25T08:27:54.487Z,2.80
2018-08-25T08:41:46.770Z,4.40
2018-08-25T08:44:15.780Z,3.50
2018-08-25T08:46:45.273Z,3.10
2018-08-25T08:49:14.352Z,3.60
2018-08-25T08:51:43.777Z,3.27
2018-08-25T08:54:13.043Z,3.53
2018-08-25T08:56:42.760Z,3.50
2018-08-25T08:59:12.993Z,3.73
2018-08-25T09:01:42.009Z,3.70
2018-08-25T09:04:10.998Z,4.07
2018-08-25T09:06:40.132Z,4.97
2018-08-25T09:53:51.187Z,4.70
2018-08-25T09:56:20.750Z,3.50
2018-08-25T09:58:50.122Z,5.20
2018-08-25T10:13:47.457Z,3.53
2018-08-25T10:21:12.857Z,3.03
2018-08-25T10:26:10.232Z,3.70
2018-08-25T10:28:39.220Z,3.80
2018-08-25T10:31:08.303Z,2.93
2018-08-25T10:33:38.154Z,2.70
2018-08-25T10:36:07.172Z,2.53
2018-08-25T10:38:36.209Z,2.07
2018-08-25T10:41:06.216Z,2.33
2018-08-25T10:43:35.244Z,2.00
2018-08-25T10:46:04.423Z,1.60
2018-08-25T10:48:33.508Z,1.63
2018-08-25T10:51:02.644Z,1.77
2018-08-25T10:53:31.695Z,2.07
2018-08-25T10:56:00.719Z,2.10
2018-08-25T10:58:29.748Z,1.67
2018-08-25T11:00:58.895Z,2.00
2018-08-25T11:03:27.850Z,2.13
2018-08-25T11:05:56.928Z,1.73
2018-08-25T11:08:26.111Z,1.60
2018-08-25T11:10:55.390Z,2.00
2018-08-25T11:13:24.431Z,1.63
2018-08-25T11:15:54.367Z,1.47
2018-08-25T11:18:23.605Z,1.70
2018-08-25T11:20:52.732Z,2.70
2018-08-25T11:23:21.928Z,3.07
2018-08-25T11:25:56.521Z,2.43
2018-08-25T11:28:25.987Z,3.00
2018-08-25T11:30:55.861Z,2.60
2018-08-25T11:33:27.845Z,2.60
2018-08-25T11:35:57.094Z,2.33
2018-08-25T11:38:26.233Z,2.10
2018-08-25T11:40:55.268Z,2.30
2018-08-25T11:43:24.325Z,2.20
2018-08-25T11:45:53.420Z,2.67
2018-08-25T11:48:22.517Z,2.87
2018-08-25T11:50:51.618Z,2.40
2018-08-25T11:53:20.636Z,2.60
2018-08-25T11:55:49.781Z,2.60
2018-08-25T11:58:18.761Z,2.70
2018-08-25T12:00:48.050Z,2.60
2018-08-25T12:03:17.036Z,2.77
2018-08-25T12:05:46.981Z,3.03
2018-08-25T12:08:16.196Z,3.47
2018-08-25T12:10:45.177Z,3.17
2018-08-25T12:13:14.184Z,3.60
2018-08-25T12:15:43.406Z,2.80
2018-08-25T12:18:12.467Z,2.20
2018-08-25T12:20:41.561Z,2.60
2018-08-25T12:23:10.704Z,2.73
2018-08-25T12:25:40.802Z,1.87
2018-08-25T12:28:09.960Z,1.77
2018-08-25T12:30:39.108Z,2.23
2018-08-25T12:33:08.017Z,1.80
2018-08-25T12:35:37.284Z,1.80
2018-08-25T12:38:06.348Z,2.30
2018-08-25T12:40:35.539Z,1.60
2018-08-25T12:43:04.720Z,1.80
2018-08-25T12:45:34.913Z,1.70
2018-08-25T12:48:04.233Z,1.87
2018-08-25T12:50:33.485Z,2.30
2018-08-25T12:53:02.696Z,2.00
2018-08-25T12:55:31.827Z,2.43
2018-08-25T12:58:01.165Z,2.10
2018-08-25T13:00:30.119Z,2.00
2018-08-25T13:02:59.260Z,2.03
2018-08-25T13:05:28.468Z,2.37
2018-08-25T13:07:57.488Z,2.20
2018-08-25T13:10:26.886Z,2.67
2018-08-25T13:13:02.401Z,4.60
2018-08-25T13:15:31.341Z,5.20
2018-08-25T13:18:00.325Z,5.13
2018-08-25T13:20:29.395Z,4.87
2018-08-25T13:22:58.725Z,4.57
2018-08-25T13:25:27.930Z,5.07
2018-08-25T13:27:56.968Z,5.03
2018-08-25T13:30:25.960Z,5.07
2018-08-25T13:32:55.051Z,4.70
2018-08-25T13:35:24.394Z,4.63
2018-08-25T13:37:53.380Z,3.90
2018-08-25T13:40:22.455Z,4.30
2018-08-25T13:42:51.595Z,4.57
2018-08-25T13:45:20.704Z,4.20
2018-08-25T13:47:49.735Z,3.57
2018-08-25T13:50:18.954Z,4.53
2018-08-25T13:52:48.184Z,4.27
2018-08-25T13:55:17.438Z,3.93
2018-08-25T13:57:46.684Z,3.80
2018-08-25T14:00:15.888Z,4.67
2018-08-25T14:02:45.274Z,5.00
2018-08-25T14:05:14.526Z,3.90
2018-08-25T14:07:43.565Z,3.57
2018-08-25T14:10:12.734Z,3.20
2018-08-25T14:12:42.136Z,2.90
2018-08-25T14:15:12.968Z,2.83
2018-08-25T14:17:42.456Z,3.23
2018-08-25T14:20:11.771Z,3.37
2018-08-25T14:22:40.856Z,2.13
2018-08-25T14:25:10.173Z,1.77
2018-08-25T14:27:39.457Z,1.53
2018-08-25T14:30:08.602Z,1.60
2018-08-25T14:32:37.694Z,1.50
2018-08-25T14:35:08.125Z,1.87
2018-08-25T14:37:37.238Z,1.80
2018-08-25T14:40:06.564Z,1.63
2018-08-25T14:42:35.622Z,1.53
2018-08-25T14:45:04.889Z,1.30
2018-08-25T14:47:34.059Z,1.70
2018-08-25T14:50:03.165Z,1.10
2018-08-25T14:52:32.337Z,1.70
2018-08-25T14:55:01.561Z,1.40
2018-08-25T14:57:30.637Z,1.50
2018-08-25T14:59:59.990Z,1.40
2018-08-25T15:02:29.115Z,2.83
2018-08-25T15:04:58.258Z,7.70
2018-08-25T15:07:27.422Z,4.90
2018-08-25T15:09:56.616Z,2.20
2018-08-25T15:12:25.652Z,1.87
2018-08-25T15:14:55.089Z,1.63
2018-08-25T15:17:24.328Z,2.50
2018-08-25T15:19:53.448Z,1.67
2018-08-25T15:22:22.443Z,1.97
2018-08-25T15:24:51.729Z,1.93
2018-08-25T15:27:20.762Z,2.50
2018-08-25T15:29:49.811Z,1.90
2018-08-25T15:32:19.046Z,1.47
2018-08-25T15:34:48.603Z,1.60
2018-08-25T15:37:18.129Z,1.63
2018-08-25T15:39:47.294Z,1.30
2018-08-25T15:42:16.536Z,1.53
2018-08-25T15:44:45.644Z,1.27
2018-08-25T15:47:14.667Z,1.37
2018-08-25T15:49:43.941Z,1.43
2018-08-25T15:52:13.092Z,1.50
2018-08-25T15:54:42.290Z,1.70
2018-08-25T15:57:11.327Z,1.30
2018-08-25T15:59:40.475Z,1.10
2018-08-25T16:02:09.477Z,1.30
2018-08-25T16:04:38.762Z,1.50
2018-08-25T16:07:07.895Z,1.03
2018-08-25T16:09:37.197Z,1.20
2018-08-25T16:12:06.563Z,1.97
2018-08-25T16:14:35.549Z,1.50
2018-08-25T16:17:04.659Z,1.00
2018-08-25T16:19:33.665Z,1.37
2018-08-25T16:22:02.867Z,0.70
2018-08-25T16:24:32.529Z,1.20
2018-08-25T16:27:01.670Z,1.33
2018-08-25T16:29:31.011Z,2.13
2018-08-25T16:32:00.246Z,1.60
2018-08-25T16:34:29.384Z,1.43
2018-08-25T16:36:58.668Z,1.20
2018-08-25T16:39:28.026Z,1.30
2018-08-25T16:41:57.251Z,1.40
2018-08-25T16:44:26.342Z,1.27
2018-08-25T16:46:55.670Z,1.03
2018-08-25T16:49:24.788Z,1.40
2018-08-25T16:51:55.197Z,1.47
2018-08-25T16:54:24.436Z,0.90
2018-08-25T16:56:53.506Z,1.00
2018-08-25T16:59:23.718Z,1.00
2018-08-25T17:01:53.458Z,1.07
2018-08-25T17:04:23.121Z,0.90
2018-08-25T17:06:52.961Z,1.00
2018-08-25T17:09:22.425Z,1.00
2018-08-25T17:11:51.951Z,0.90
2018-08-25T17:14:21.185Z,0.90
2018-08-25T17:16:50.622Z,0.90
2018-08-25T17:19:20.589Z,1.40
2018-08-25T17:21:50.721Z,2.03
2018-08-25T17:24:19.892Z,1.00
2018-08-25T17:26:49.401Z,1.20
2018-08-25T17:29:18.652Z,1.10
2018-08-25T17:31:48.172Z,1.00
2018-08-25T17:34:17.435Z,1.00
2018-08-25T17:36:46.571Z,1.00
2018-08-25T17:39:15.788Z,0.90
2018-08-25T17:41:44.936Z,1.10
2018-08-25T17:44:14.464Z,1.83
2018-08-25T17:46:44.068Z,1.30
2018-08-25T17:49:14.025Z,1.00
2018-08-25T17:51:43.664Z,1.33
2018-08-25T17:54:13.944Z,2.30
2018-08-25T17:56:43.956Z,2.30
2018-08-25T17:59:13.626Z,1.90
2018-08-25T18:01:43.250Z,1.17
2018-08-25T18:04:12.515Z,1.77
2018-08-25T18:06:41.632Z,0.97
2018-08-25T18:09:10.760Z,1.40
2018-08-25T18:11:39.996Z,1.30
2018-08-25T18:14:09.102Z,1.30
2018-08-25T18:16:39.120Z,1.50
2018-08-25T18:19:08.403Z,1.47
2018-08-25T18:21:37.818Z,1.53
2018-08-25T18:24:07.371Z,1.27
2018-08-25T18:26:36.532Z,1.53
2018-08-25T18:29:05.961Z,1.67
2018-08-25T18:31:35.176Z,1.80
2018-08-25T18:34:04.488Z,1.20
2018-08-25T18:36:34.083Z,1.70
2018-08-25T18:39:03.464Z,1.93
2018-08-25T18:41:32.835Z,1.63
2018-08-25T18:44:03.191Z,1.57
2018-08-25T18:46:32.644Z,1.80
2018-08-25T18:49:02.296Z,1.60
2018-08-25T18:51:31.582Z,1.60
2018-08-25T18:54:01.735Z,1.60
2018-08-25T18:56:31.664Z,2.03
2018-08-25T18:59:01.259Z,1.60
2018-08-25T19:01:30.861Z,2.23
2018-08-25T19:04:00.123Z,1.80
2018-08-25T19:06:29.572Z,1.60
2018-08-25T19:11:27.086Z,0.90
2018-08-25T19:13:56.750Z,0.90
2018-08-25T19:16:26.271Z,0.90
2018-08-25T19:18:55.558Z,1.10
2018-08-25T19:21:25.105Z,1.30
2018-08-25T19:23:54.514Z,2.73
2018-08-25T19:26:23.838Z,2.17
2018-08-25T19:28:53.585Z,1.20
2018-08-25T19:31:23.301Z,1.60
2018-08-25T19:33:53.319Z,2.60
2018-08-25T19:36:23.197Z,2.03
2018-08-25T19:38:52.980Z,1.30
2018-08-25T19:41:23.062Z,1.27
2018-08-25T19:43:52.717Z,1.10
2018-08-25T19:46:22.994Z,1.23
2018-08-25T19:48:52.649Z,1.40
2018-08-25T19:51:22.421Z,1.10
2018-08-25T19:53:51.883Z,1.20
2018-08-25T19:56:21.522Z,1.07
2018-08-25T19:58:51.059Z,1.00
2018-08-25T20:01:20.679Z,1.20
2018-08-25T20:03:50.912Z,1.10
2018-08-25T20:06:20.379Z,1.00
2018-08-25T20:08:49.712Z,1.10
2018-08-25T20:11:19.099Z,1.10
2018-08-25T20:13:48.308Z,1.20
2018-08-25T20:16:18.827Z,1.00
2018-08-25T20:18:48.138Z,1.60
2018-08-25T20:21:17.710Z,4.77
2018-08-25T20:23:47.076Z,17.00
2018-08-25T20:26:16.201Z,16.07
2018-08-25T20:28:45.624Z,14.50
2018-08-25T20:31:15.093Z,10.47
2018-08-25T20:33:44.380Z,6.80
2018-08-25T20:36:13.989Z,4.73
2018-08-25T20:38:43.658Z,3.47
2018-08-25T20:41:13.414Z,3.03
2018-08-25T20:43:43.179Z,2.70
2018-08-25T20:46:12.533Z,2.90
2018-08-25T20:48:42.289Z,1.40
2018-08-25T20:51:11.604Z,1.23
2018-08-25T20:53:41.289Z,1.33
2018-08-25T20:56:10.466Z,1.30
2018-08-25T20:58:40.220Z,1.80
2018-08-25T21:01:09.433Z,1.20
2018-08-25T21:03:38.722Z,1.37
2018-08-25T21:06:07.869Z,1.30
2018-08-25T21:08:36.880Z,1.30
2018-08-25T21:11:06.208Z,1.30
2018-08-25T21:13:35.528Z,1.73
2018-08-25T21:16:04.995Z,1.60
2018-08-25T21:18:34.205Z,2.13
2018-08-25T21:21:03.387Z,1.67
2018-08-25T21:23:32.465Z,1.40
2018-08-25T21:26:01.644Z,1.50
2018-08-25T21:28:30.842Z,1.47
2018-08-25T21:31:00.267Z,2.00
2018-08-25T21:33:29.641Z,1.77
2018-08-25T21:35:58.706Z,2.17
2018-08-25T21:38:28.533Z,2.03
2018-08-25T21:40:57.780Z,1.93
2018-08-25T21:43:27.202Z,1.73
2018-08-25T21:45:56.521Z,1.80
2018-08-25T21:48:26.121Z,1.60
2018-08-25T21:50:55.142Z,2.03
2018-08-25T21:53:24.447Z,1.47
2018-08-25T21:55:53.575Z,1.90
2018-08-25T21:58:22.881Z,1.77
2018-08-25T22:00:58.392Z,2.00
2018-08-25T22:03:28.255Z,2.03
2018-08-25T22:05:57.638Z,1.53
2018-08-25T22:08:26.677Z,2.03
2018-08-25T22:10:55.930Z,1.47
2018-08-25T22:13:25.106Z,1.83
2018-08-25T22:15:54.647Z,1.47
2018-08-25T22:18:23.788Z,1.80
2018-08-25T22:20:52.861Z,1.73
2018-08-25T22:23:21.874Z,1.83
2018-08-25T22:25:50.888Z,1.93
2018-08-25T22:28:19.924Z,2.00
2018-08-25T22:30:49.029Z,1.77
2018-08-25T22:33:18.152Z,2.23
2018-08-25T22:35:47.508Z,2.63
2018-08-25T22:38:16.895Z,2.13
2018-08-25T22:40:46.155Z,1.90
2018-08-25T22:43:15.728Z,2.30
2018-08-25T22:45:44.828Z,2.40
2018-08-25T22:48:14.224Z,2.43
2018-08-25T22:50:43.363Z,3.17
2018-08-25T22:53:13.063Z,1.97
2018-08-25T22:55:42.320Z,2.53
2018-08-25T23:08:07.394Z,2.07
2018-08-25T23:10:37.144Z,2.27
